• Join FlightAware (Why Join?)
  • Login
  • US Flag 
11:10AM EST


 

Airport Tracker/Info


-or-


 

Live Flight TrackerFlight Track Log ✈ EJA941 ✈ 01-May-2013 ✈ KIND - KMSL

Flight Track Log - Related Links

Times and Time Zones

All times are in EDT time to prevent confusion due to time zone crossing. See the EJA941 flight status page for this flight to view local times or setup timezone preferences in your user account.

Time Position Orientation Groundspeed Altitude Reporting Facility
EDT Latitude Longitude Course Direction KTS MPH feet Rate Location/Type
06:37AM 39.7000 -86.3000 226° Southwest 171 197 1,600  Level Indianapolis TRACON
06:38AM 39.6500 -86.3667 226° Southwest 253 291 5,600 2,340 Climbing Indianapolis TRACON
06:39AM 39.5950 -86.3911 199° South 248 285 6,500 1,260 Climbing Indianapolis Center
06:40AM 39.5236 -86.3803 173° South 258 297 8,000 840 Climbing Indianapolis Center
06:41AM 39.4503 -86.3678 173° South 262 302 8,300 1,560 Climbing Indianapolis Center
06:42AM 39.3756 -86.3561 173° South 267 307 11,200 2,580 Climbing Indianapolis Center
06:43AM 39.2986 -86.3444 173° South 274 315 13,600 2,160 Climbing Indianapolis Center
06:44AM 39.2125 -86.3306 173° South 300 345 15,600 1,980 Climbing Indianapolis Center
06:45AM 39.1219 -86.3172 173° South 320 368 17,700 1,980 Climbing Indianapolis Center
06:46AM 39.0239 -86.3014 173° South 344 396 19,600 1,860 Climbing Indianapolis Center
06:47AM 38.9217 -86.2844 173° South 362 417 21,600 1,860 Climbing Indianapolis Center
06:48AM 38.8175 -86.2786 178° South 387 445 23,500 1,860 Climbing Indianapolis Center
06:49AM 38.7069 -86.3158 195° South 409 471 25,400 1,740 Climbing Indianapolis Center
06:50AM 38.5925 -86.3508 193° South 417 480 27,100 1,260 Climbing Indianapolis Center
06:51AM 38.4703 -86.3883 194° South 444 511 28,000 420 Climbing Indianapolis Center
06:52AM 38.3403 -86.4306 194° South 473 544 28,000  Level Indianapolis Center
06:53AM 38.2031 -86.4711 193° South 495 570 28,000 420 Level Indianapolis Center
06:54AM 38.0653 -86.5139 194° South 503 579 28,900 900 Climbing Indianapolis Center
06:55AM 37.9297 -86.5542 193° South 495 570 29,900 540 Climbing Indianapolis Center
06:56AM 37.7919 -86.5961 194° South 503 579 30,000  Climbing Indianapolis Center
06:57AM 37.6253 -86.6478 194° South 509 586 30,000  Level Indianapolis Center
06:58AM 37.5075 -86.6831 193° South 509 586 30,000  Level Indianapolis Center
06:59AM 37.3686 -86.7256 194° South 509 586 30,000  Level Indianapolis Center
07:00AM 37.2011 -86.7761 194° South 512 589 30,000  Level Memphis Center
07:01AM 37.0647 -86.8161 193° South 505 581 30,000  Level Memphis Center
07:02AM 36.9261 -86.8561 193° South 513 590 30,000 -300 Level Memphis Center
07:03AM 36.7919 -86.8956 193° South 508 585 29,500 -1,020 Descending Memphis Center
07:04AM 36.6594 -86.9350 193° South 503 579 28,000 -1,500 Descending Memphis Center
07:05AM 36.5253 -86.9742 193° South 498 573 26,500 -1,500 Descending Memphis Center
07:06AM 36.3950 -87.0156 194° South 492 566 25,000 -1,260 Descending Memphis Center
07:07AM 36.2667 -87.0519 193° South 485 558 24,000 -1,140 Descending Memphis Center
07:08AM 36.1383 -87.0881 193° South 478 550 22,800 -1,380 Descending Memphis Center
07:09AM 36.0122 -87.1239 193° South 478 550 21,300 -1,560 Descending Memphis Center
07:10AM 35.8881 -87.1594 193° South 465 535 19,700 -1,560 Descending Memphis Center
07:11AM 35.7700 -87.1922 193° South 451 519 18,200 -1,500 Descending Memphis Center
07:12AM 35.6500 -87.2275 193° South 446 513 16,800 -1,560 Descending Memphis Center
07:13AM 35.5339 -87.2597 193° South 440 506 15,100 -1,740 Descending Memphis Center
07:14AM 35.4075 -87.2950 193° South 428 493 13,400 -1,620 Descending Memphis Center
07:15AM 35.3186 -87.3211 193° South 408 470 11,900 -1,440 Descending Memphis Center
07:16AM 35.2314 -87.3447 192° South 364 419 10,600 -1,440 Descending Memphis Center
07:17AM 35.1528 -87.3678 193° South 321 369 9,100 -1,620 Descending Memphis Center
07:18AM 35.0781 -87.3883 193° South 294 338 7,400 -1,680 Descending Memphis Center
07:19AM 35.0056 -87.4086 193° South 278 320 5,800 -1,620 Descending Memphis Center
07:20AM 34.9353 -87.4289 193° South 273 314 4,200 -1,440 Descending Memphis Center
07:21AM 34.8689 -87.4489 194° South 262 302 3,000 -1,200 Descending Memphis Center